Time;durP1;ratioP1;P1;durP2;ratioP2;P2;SDS_P1;SDS_P2;PMS_P1;PMS_P2;Temp;Humidity;BMP_temperature;BMP_pressure;BME280_temperature;BME280_humidity;BME280_pressure;Samples;Min_cycle;Max_cycle;Signal;HPM_P1;HPM_P2
2023/06/18 00:02:04;;;;;;;6.18;3.58;;;28.50;99.90;;;;;;4947589;29;20047;-48
2023/06/18 00:04:31;;;;;;;5.30;3.47;;;28.50;99.90;;;;;;4954623;29;20067;-48
2023/06/18 00:06:57;;;;;;;4.18;3.28;;;28.50;99.90;;;;;;4955153;29;20110;-47
2023/06/18 00:09:23;;;;;;;5.50;3.85;;;28.50;99.90;;;;;;4936989;29;20788;-48
2023/06/18 00:11:49;;;;;;;4.38;3.65;;;28.50;99.90;;;;;;4949700;29;20023;-48
2023/06/18 00:14:17;;;;;;;6.68;3.70;;;28.50;99.90;;;;;;4950161;28;20028;-47
2023/06/18 00:16:43;;;;;;;6.15;3.60;;;28.50;99.90;;;;;;4950017;29;20030;-48
2023/06/18 00:19:08;;;;;;;7.70;3.70;;;28.50;99.90;;;;;;4955333;29;20042;-48
2023/06/18 00:21:35;;;;;;;5.03;3.38;;;28.50;99.90;;;;;;4944898;29;20024;-48
2023/06/18 00:24:01;;;;;;;7.28;4.35;;;28.50;99.90;;;;;;4937794;29;20027;-49
2023/06/18 00:26:26;;;;;;;6.70;4.05;;;28.50;99.90;;;;;;4937657;29;20031;-48
2023/06/18 00:28:52;;;;;;;5.10;4.18;;;28.50;99.90;;;;;;4936173;29;20115;-48
2023/06/18 00:31:19;;;;;;;4.07;3.65;;;28.50;99.90;;;;;;4936360;29;20040;-49
2023/06/18 00:33:45;;;;;;;4.47;3.42;;;28.50;99.90;;;;;;4950225;29;20568;-49
2023/06/18 00:36:12;;;;;;;8.63;3.92;;;28.50;99.90;;;;;;4937413;29;20086;-50
2023/06/18 00:38:45;;;;;;;3.67;3.38;;;28.50;99.90;;;;;;4948944;29;20031;-49
2023/06/18 00:41:12;;;;;;;7.05;3.92;;;28.50;99.90;;;;;;4937303;29;20421;-49
2023/06/18 00:43:38;;;;;;;5.07;3.87;;;28.50;99.90;;;;;;4951140;28;20027;-49
2023/06/18 00:46:05;;;;;;;5.07;3.60;;;28.50;99.90;;;;;;4937676;29;20269;-49
2023/06/18 00:48:32;;;;;;;4.85;3.85;;;28.50;99.90;;;;;;4937551;29;20024;-48
2023/06/18 00:50:59;;;;;;;8.65;3.80;;;28.60;99.90;;;;;;4937200;29;20078;-48
2023/06/18 00:53:25;;;;;;;5.65;4.13;;;28.50;99.90;;;;;;4937130;29;20604;-49
2023/06/18 00:55:52;;;;;;;4.53;3.05;;;28.50;99.90;;;;;;4943434;28;20147;-48
2023/06/18 00:58:23;;;;;;;6.32;3.80;;;28.50;99.90;;;;;;4944978;29;20067;-49
2023/06/18 01:00:50;;;;;;;4.28;3.20;;;28.50;99.90;;;;;;4967143;23;20051;-54
2023/06/18 01:03:20;;;;;;;6.30;3.58;;;28.50;99.90;;;;;;4955124;29;20475;-54
2023/06/18 01:06:04;;;;;;;5.18;3.85;;;28.50;99.90;;;;;;4949687;29;20032;-53
2023/06/18 01:08:32;;;;;;;5.88;3.65;;;28.50;99.90;;;;;;4935440;29;20027;-54
2023/06/18 01:11:03;;;;;;;4.55;3.53;;;28.50;99.90;;;;;;4943241;29;20079;-54
2023/06/18 01:13:36;;;;;;;4.22;3.25;;;28.40;99.90;;;;;;4955841;29;20034;-54
2023/06/18 01:16:06;;;;;;;6.70;4.00;;;28.40;99.90;;;;;;4947804;29;20024;-54
2023/06/18 01:18:35;;;;;;;6.22;3.40;;;28.40;99.90;;;;;;4936855;29;20062;-54
2023/06/18 01:21:07;;;;;;;3.85;3.35;;;28.30;99.90;;;;;;4951345;28;20028;-54
2023/06/18 01:23:50;;;;;;;4.43;3.30;;;28.40;99.90;;;;;;4935642;29;20479;-54
2023/06/18 01:26:20;;;;;;;6.93;3.60;;;28.40;99.90;;;;;;4936718;29;20083;-54
2023/06/18 01:28:51;;;;;;;4.20;3.78;;;28.30;99.90;;;;;;4935204;29;20030;-54
2023/06/18 01:31:22;;;;;;;6.40;3.72;;;28.40;99.90;;;;;;4936472;29;20026;-54
2023/06/18 01:33:53;;;;;;;5.35;3.45;;;28.30;99.90;;;;;;4936343;29;20076;-54
2023/06/18 01:36:34;;;;;;;4.40;3.67;;;28.30;99.90;;;;;;4946587;29;20019;-54
2023/06/18 01:39:37;;;;;;;4.65;3.80;;;28.30;99.90;;;;;;4938325;29;20016;-54
2023/06/18 01:42:24;;;;;;;5.45;3.47;;;28.30;99.90;;;;;;4936382;29;20035;-53
2023/06/18 01:45:26;;;;;;;7.10;4.05;;;28.30;99.90;;;;;;4946593;29;20094;-53
2023/06/18 01:47:55;;;;;;;5.38;3.65;;;28.20;99.90;;;;;;4936087;29;20034;-53
2023/06/18 01:50:23;;;;;;;7.47;4.00;;;28.30;99.90;;;;;;4937316;29;20023;-53
2023/06/18 01:52:49;;;;;;;;;;;28.20;99.90;;;;;;4947681;29;20034;-53
2023/06/18 01:55:17;;;;;;;4.22;3.30;;;28.20;99.90;;;;;;4936094;29;19915;-53
2023/06/18 01:57:42;;;;;;;;;;;28.20;99.90;;;;;;4936311;29;20048;-53
2023/06/18 02:02:47;;;;;;;6.78;3.85;;;28.20;99.90;;;;;;4953325;28;20051;-56
2023/06/18 02:05:12;;;;;;;4.87;3.30;;;28.20;99.90;;;;;;4954136;28;20019;-56
2023/06/18 02:07:38;;;;;;;5.40;3.58;;;28.20;99.90;;;;;;4934833;29;20028;-55
2023/06/18 02:10:04;;;;;;;4.25;3.58;;;28.20;99.90;;;;;;4947003;29;20086;-56
2023/06/18 02:12:30;;;;;;;8.23;4.18;;;28.20;99.90;;;;;;4941838;28;20034;-55
2023/06/18 02:14:56;;;;;;;7.15;3.60;;;28.20;99.90;;;;;;4943121;28;20036;-55
2023/06/18 02:17:22;;;;;;;6.30;3.90;;;28.20;99.90;;;;;;4935516;29;20095;-56
2023/06/18 02:19:48;;;;;;;4.90;3.88;;;28.20;99.90;;;;;;4935519;29;20480;-56
2023/06/18 02:22:13;;;;;;;5.03;3.90;;;28.20;99.90;;;;;;4935512;29;20031;-56
2023/06/18 02:24:39;;;;;;;7.22;4.32;;;28.20;99.90;;;;;;4935808;29;20043;-56
2023/06/18 02:27:05;;;;;;;3.92;3.33;;;28.20;99.90;;;;;;4937454;29;20035;-55
2023/06/18 02:29:31;;;;;;;4.70;3.65;;;28.10;99.90;;;;;;4947870;28;20380;-56
2023/06/18 02:31:56;;;;;;;4.55;3.47;;;28.10;99.90;;;;;;4948029;29;20027;-56
2023/06/18 02:34:27;;;;;;;4.25;3.58;;;28.10;99.90;;;;;;4933956;29;20586;-56
2023/06/18 02:36:54;;;;;;;5.88;3.25;;;28.10;99.90;;;;;;4935227;29;20035;-56
2023/06/18 02:39:20;;;;;;;4.93;3.50;;;28.10;99.90;;;;;;4935082;29;20098;-56
2023/06/18 02:41:46;;;;;;;10.00;3.85;;;28.00;99.90;;;;;;4935318;29;20027;-56
2023/06/18 02:44:12;;;;;;;4.85;3.58;;;28.00;99.90;;;;;;4947928;29;20034;-56
2023/06/18 02:46:38;;;;;;;6.85;3.90;;;28.00;99.90;;;;;;4935325;29;20028;-56
2023/06/18 02:49:04;;;;;;;6.50;3.92;;;28.00;99.90;;;;;;4938054;29;20383;-56
2023/06/18 02:51:29;;;;;;;7.28;4.05;;;27.90;99.90;;;;;;4952841;29;20028;-56
2023/06/18 02:53:55;;;;;;;6.65;4.10;;;27.90;99.90;;;;;;4940925;29;20039;-56
2023/06/18 02:56:21;;;;;;;7.28;3.75;;;27.90;99.90;;;;;;4946287;29;20102;-56
2023/06/18 02:58:55;;;;;;;4.05;3.65;;;27.90;99.90;;;;;;4935028;29;20106;-56
2023/06/18 03:01:23;;;;;;;6.80;3.67;;;27.80;99.90;;;;;;4935444;29;20091;-56
2023/06/18 03:03:49;;;;;;;4.65;3.70;;;27.80;99.90;;;;;;4949096;29;20061;-56
2023/06/18 03:06:15;;;;;;;5.20;4.25;;;27.80;99.90;;;;;;4944792;28;20027;-56
2023/06/18 03:08:41;;;;;;;7.15;4.00;;;27.80;99.90;;;;;;4934987;29;20028;-56
2023/06/18 03:11:07;;;;;;;7.97;3.72;;;27.70;99.90;;;;;;4947717;29;20051;-56
2023/06/18 03:13:32;;;;;;;6.32;4.22;;;27.80;99.90;;;;;;4934786;29;20036;-56
2023/06/18 03:15:58;;;;;;;4.63;3.75;;;27.70;99.90;;;;;;4934688;29;20027;-56
2023/06/18 03:18:24;;;;;;;6.38;3.42;;;27.70;99.90;;;;;;4935018;29;20162;-57
2023/06/18 03:20:50;;;;;;;7.45;3.83;;;27.70;99.90;;;;;;4934662;29;20034;-56
2023/06/18 03:23:16;;;;;;;6.88;3.72;;;27.70;99.90;;;;;;4944376;29;20067;-56
2023/06/18 03:25:42;;;;;;;6.88;4.10;;;27.70;99.90;;;;;;4941347;28;20028;-56
2023/06/18 03:28:08;;;;;;;4.18;3.47;;;27.70;99.90;;;;;;4943968;29;20024;-56
2023/06/18 03:30:34;;;;;;;4.43;3.72;;;27.70;99.90;;;;;;4936751;29;20035;-57
2023/06/18 03:33:02;;;;;;;5.20;3.80;;;27.70;99.90;;;;;;4945094;29;20035;-56
2023/06/18 03:35:27;;;;;;;;;;;27.70;99.90;;;;;;4935714;29;20182;-55
2023/06/18 03:37:53;;;;;;;5.68;3.65;;;27.70;99.90;;;;;;4946515;29;19946;-56
2023/06/18 03:40:19;;;;;;;5.28;3.90;;;27.70;99.90;;;;;;4933192;29;20055;-56
2023/06/18 03:42:45;;;;;;;5.47;4.03;;;27.70;99.90;;;;;;4940436;29;20027;-56
2023/06/18 03:45:11;;;;;;;5.97;3.47;;;27.60;99.90;;;;;;4940485;29;20428;-56
2023/06/18 03:47:37;;;;;;;9.50;4.03;;;27.60;99.90;;;;;;4934378;29;20099;-56
2023/06/18 03:50:03;;;;;;;5.88;3.78;;;27.60;99.90;;;;;;4952454;29;20049;-56
2023/06/18 03:52:29;;;;;;;4.65;3.85;;;27.60;99.90;;;;;;4936164;28;20099;-56
2023/06/18 03:54:54;;;;;;;4.82;3.80;;;27.60;99.90;;;;;;4945153;29;20036;-57
2023/06/18 03:57:20;;;;;;;5.15;3.88;;;27.60;99.90;;;;;;4937709;29;20042;-56
2023/06/18 03:59:51;;;;;;;5.25;3.78;;;27.60;99.90;;;;;;4943313;29;20567;-56
2023/06/18 04:02:17;;;;;;;9.80;3.45;;;27.60;99.90;;;;;;4951648;29;20054;-56
2023/06/18 04:04:44;;;;;;;10.77;4.57;;;27.50;99.90;;;;;;4934638;29;20058;-57
2023/06/18 04:07:10;;;;;;;8.90;3.93;;;27.40;99.90;;;;;;4947310;29;20047;-55
2023/06/18 04:09:36;;;;;;;12.73;5.03;;;27.40;99.90;;;;;;4934233;29;20274;-55
2023/06/18 04:12:03;;;;;;;6.15;4.70;;;27.40;99.90;;;;;;4933044;29;20015;-56
2023/06/18 04:14:28;;;;;;;7.85;3.60;;;27.40;99.90;;;;;;4934168;29;20119;-56
2023/06/18 04:16:54;;;;;;;5.20;3.63;;;27.40;99.90;;;;;;4946947;29;20540;-56
2023/06/18 04:19:21;;;;;;;5.75;3.40;;;27.30;99.90;;;;;;4936154;29;20066;-55
2023/06/18 04:21:47;;;;;;;5.60;3.72;;;27.30;99.90;;;;;;4937747;29;20380;-56
2023/06/18 04:24:13;;;;;;;4.03;3.47;;;27.20;99.90;;;;;;4937793;29;20553;-56
2023/06/18 04:26:39;;;;;;;7.95;3.85;;;27.20;99.90;;;;;;4936237;29;20102;-55
2023/06/18 04:29:05;;;;;;;8.65;4.03;;;27.20;99.90;;;;;;4936505;29;20024;-55
2023/06/18 04:31:31;;;;;;;4.72;3.58;;;27.10;99.90;;;;;;4949155;29;20024;-54
2023/06/18 04:33:57;;;;;;;5.68;3.80;;;27.20;99.90;;;;;;4943423;28;20038;-55
2023/06/18 04:36:22;;;;;;;4.90;3.67;;;27.20;99.90;;;;;;4956653;28;20034;-55
2023/06/18 04:38:48;;;;;;;3.97;3.58;;;27.20;99.90;;;;;;4939933;29;20055;-55
2023/06/18 04:41:14;;;;;;;6.00;3.67;;;27.20;99.90;;;;;;4937680;29;20107;-55
2023/06/18 04:43:40;;;;;;;6.15;3.63;;;27.20;99.90;;;;;;4939607;29;20027;-55
2023/06/18 04:46:06;;;;;;;6.32;4.32;;;27.30;99.90;;;;;;4956705;28;20031;-55
2023/06/18 04:48:34;;;;;;;8.90;4.60;;;27.30;99.90;;;;;;4939590;29;20392;-55
2023/06/18 04:50:59;;;;;;;5.63;4.30;;;27.30;99.90;;;;;;4937015;29;20028;-56
2023/06/18 04:53:25;;;;;;;5.68;3.60;;;27.40;99.90;;;;;;4936757;29;20027;-56
2023/06/18 04:55:51;;;;;;;9.90;3.70;;;27.40;99.90;;;;;;4935913;29;20380;-55
2023/06/18 04:58:17;;;;;;;8.80;3.95;;;27.40;99.90;;;;;;4949600;29;20023;-56
2023/06/18 05:00:44;;;;;;;9.77;3.88;;;27.50;99.90;;;;;;4937203;29;20086;-55
2023/06/18 05:03:09;;;;;;;4.03;3.50;;;27.50;99.90;;;;;;4948246;29;20050;-55
2023/06/18 05:05:35;;;;;;;5.18;3.70;;;27.50;99.90;;;;;;4938634;28;20468;-54
2023/06/18 05:08:01;;;;;;;11.25;4.22;;;27.50;99.90;;;;;;4936893;29;20078;-55
2023/06/18 05:10:27;;;;;;;7.15;3.60;;;27.60;99.90;;;;;;4939806;29;20023;-56
2023/06/18 05:12:53;;;;;;;9.18;4.35;;;27.60;99.90;;;;;;4955993;28;20034;-55
2023/06/18 05:15:19;;;;;;;13.52;4.75;;;27.60;99.90;;;;;;4954757;29;20150;-55
2023/06/18 05:17:45;;;;;;;4.88;3.60;;;27.60;99.90;;;;;;4948032;28;20098;-54
2023/06/18 05:20:11;;;;;;;4.18;3.35;;;27.60;99.90;;;;;;4936629;29;20122;-56
2023/06/18 05:22:39;;;;;;;6.40;4.07;;;27.70;99.90;;;;;;4936708;29;20027;-55
2023/06/18 05:25:05;;;;;;;6.60;4.75;;;27.70;99.90;;;;;;4949649;29;20170;-55
2023/06/18 05:27:31;;;;;;;6.53;4.38;;;27.70;99.90;;;;;;4947587;29;20027;-56
2023/06/18 05:29:57;;;;;;;4.63;3.58;;;27.70;99.90;;;;;;4935942;29;20070;-55
2023/06/18 05:32:22;;;;;;;6.43;3.63;;;27.70;99.90;;;;;;4935086;29;20388;-56
2023/06/18 05:34:48;;;;;;;5.30;3.78;;;27.80;99.90;;;;;;4936460;29;20040;-55
2023/06/18 05:37:14;;;;;;;17.35;6.15;;;27.80;99.90;;;;;;4940133;29;20387;-56
2023/06/18 05:39:40;;;;;;;20.88;5.20;;;27.90;99.90;;;;;;4955510;28;20035;-56
2023/06/18 05:42:07;;;;;;;11.45;3.92;;;27.90;99.90;;;;;;4938639;29;20020;-55
2023/06/18 05:44:32;;;;;;;8.70;3.83;;;27.90;99.90;;;;;;4944996;29;20106;-55
2023/06/18 05:46:58;;;;;;;5.85;4.10;;;27.90;99.90;;;;;;4940101;29;20115;-55
2023/06/18 05:49:26;;;;;;;7.88;4.38;;;27.90;99.90;;;;;;4936267;29;20536;-55
2023/06/18 05:51:52;;;;;;;4.82;4.32;;;27.90;99.90;;;;;;4948657;29;20502;-56
2023/06/18 05:54:18;;;;;;;7.18;4.22;;;27.90;99.90;;;;;;4936168;29;20032;-55
2023/06/18 05:56:44;;;;;;;4.40;3.80;;;27.90;99.90;;;;;;4935958;29;20027;-55
2023/06/18 05:59:10;;;;;;;5.25;4.00;;;27.90;99.90;;;;;;4948561;29;20028;-56
2023/06/18 06:01:36;;;;;;;8.05;4.50;;;27.80;99.90;;;;;;4935801;29;20047;-56
2023/06/18 06:04:03;;;;;;;5.38;4.28;;;27.80;99.90;;;;;;4940343;29;20027;-55
2023/06/18 06:06:29;;;;;;;5.17;4.13;;;27.70;99.90;;;;;;4943067;29;20038;-55
2023/06/18 06:08:55;;;;;;;10.45;3.65;;;27.80;99.90;;;;;;4952606;29;20685;-56
2023/06/18 06:11:21;;;;;;;4.93;3.65;;;27.70;99.90;;;;;;4945332;28;20084;-55
2023/06/18 06:13:47;;;;;;;9.00;4.07;;;27.80;99.90;;;;;;4935697;29;20027;-55
2023/06/18 06:16:12;;;;;;;5.30;3.60;;;27.70;99.90;;;;;;4935468;29;20559;-55
2023/06/18 06:18:38;;;;;;;6.18;3.83;;;27.70;99.90;;;;;;4935489;29;20028;-55
2023/06/18 06:21:04;;;;;;;4.15;3.70;;;27.70;99.90;;;;;;4935496;29;20106;-55
2023/06/18 06:23:30;;;;;;;5.85;4.05;;;27.70;99.90;;;;;;4935707;29;20376;-55
2023/06/18 06:25:56;;;;;;;6.75;4.03;;;27.70;99.90;;;;;;4947900;29;20020;-55
2023/06/18 06:28:22;;;;;;;5.18;3.88;;;27.70;99.90;;;;;;4948220;29;20031;-55
2023/06/18 06:30:48;;;;;;;11.15;5.15;;;27.70;99.90;;;;;;4940792;29;20122;-56
2023/06/18 06:33:14;;;;;;;12.98;5.20;;;27.80;99.90;;;;;;4942518;29;20383;-55
2023/06/18 06:35:40;;;;;;;8.18;4.47;;;27.80;99.90;;;;;;4935251;29;20035;-55
2023/06/18 06:38:06;;;;;;;11.40;4.35;;;27.80;99.90;;;;;;4935350;29;20023;-55
2023/06/18 06:40:32;;;;;;;5.50;3.92;;;27.80;99.90;;;;;;4933945;29;20055;-55
2023/06/18 06:42:58;;;;;;;6.70;4.75;;;27.80;99.90;;;;;;4934780;29;20464;-55
2023/06/18 06:45:24;;;;;;;6.70;3.70;;;27.80;99.90;;;;;;4949012;29;20023;-55
2023/06/18 06:47:50;;;;;;;6.63;3.75;;;27.90;99.90;;;;;;4945279;28;20062;-55
2023/06/18 06:50:16;;;;;;;4.85;3.70;;;27.90;99.90;;;;;;4935840;29;20067;-55
2023/06/18 06:52:42;;;;;;;7.57;3.70;;;27.80;99.90;;;;;;4954189;28;20015;-55
2023/06/18 06:55:08;;;;;;;7.93;3.45;;;27.80;99.90;;;;;;4940235;28;20072;-56
2023/06/18 06:57:34;;;;;;;4.38;3.55;;;27.80;99.90;;;;;;4935096;29;20078;-55
2023/06/18 07:00:00;;;;;;;5.25;3.75;;;27.80;99.90;;;;;;4935182;29;20094;-56
2023/06/18 07:02:25;;;;;;;5.80;4.20;;;27.80;99.90;;;;;;4933488;29;20043;-55
2023/06/18 07:04:51;;;;;;;4.60;3.85;;;27.80;99.90;;;;;;4935036;29;20376;-56
2023/06/18 07:07:17;;;;;;;6.82;3.30;;;27.80;99.90;;;;;;4947404;29;20360;-56
2023/06/18 07:09:43;;;;;;;5.20;3.83;;;27.70;99.90;;;;;;4933659;29;20083;-56
2023/06/18 07:12:10;;;;;;;6.10;3.75;;;27.70;99.90;;;;;;4947515;29;20027;-55
2023/06/18 07:14:36;;;;;;;4.80;3.27;;;27.70;99.90;;;;;;4944369;29;20038;-55
2023/06/18 07:17:01;;;;;;;6.85;4.10;;;27.70;99.90;;;;;;4950360;28;20302;-55
2023/06/18 07:19:27;;;;;;;5.93;3.33;;;27.60;99.90;;;;;;4952564;28;20023;-55
2023/06/18 07:21:56;;;;;;;6.07;3.58;;;27.60;99.90;;;;;;4940928;28;20456;-55
2023/06/18 07:24:22;;;;;;;7.93;4.15;;;27.60;99.90;;;;;;4945671;29;20031;-55
2023/06/18 07:26:48;;;;;;;4.80;3.88;;;27.60;99.90;;;;;;4934729;29;20015;-54
2023/06/18 07:29:13;;;;;;;6.68;3.88;;;27.60;99.90;;;;;;4934698;29;20062;-55
2023/06/18 07:31:39;;;;;;;9.05;4.07;;;27.60;99.90;;;;;;4935611;29;20062;-55
2023/06/18 07:34:05;;;;;;;6.40;3.53;;;27.60;99.90;;;;;;4946637;28;20032;-55
2023/06/18 07:36:31;;;;;;;7.45;3.50;;;27.50;99.90;;;;;;4947773;29;20487;-55
2023/06/18 07:38:57;;;;;;;4.90;3.60;;;27.50;99.90;;;;;;4934770;29;20528;-55
2023/06/18 07:41:23;;;;;;;7.60;4.10;;;27.40;99.90;;;;;;4934939;29;20023;-54
2023/06/18 07:43:48;;;;;;;10.20;4.13;;;27.40;99.90;;;;;;4934748;29;20031;-55
2023/06/18 07:46:14;;;;;;;9.07;4.82;;;27.40;99.90;;;;;;4943933;29;20090;-54
2023/06/18 07:48:40;;;;;;;7.25;4.20;;;27.30;99.90;;;;;;4949185;28;20032;-56
2023/06/18 07:51:06;;;;;;;8.90;4.55;;;27.40;99.90;;;;;;4934631;29;20031;-55
2023/06/18 07:53:32;;;;;;;7.68;4.45;;;27.30;99.90;;;;;;4949226;28;20035;-55
2023/06/18 07:55:59;;;;;;;7.50;5.35;;;27.30;99.90;;;;;;4938332;29;20036;-55
2023/06/18 07:58:25;;;;;;;10.95;4.20;;;27.30;99.90;;;;;;4939957;29;20031;-55
2023/06/18 08:00:51;;;;;;;10.75;5.45;;;27.30;99.90;;;;;;4957223;29;20047;-55
2023/06/18 08:03:17;;;;;;;10.45;5.75;;;27.30;99.90;;;;;;4942909;28;20028;-55
2023/06/18 08:05:43;;;;;;;7.20;4.38;;;27.30;99.90;;;;;;4938218;29;20156;-55
2023/06/18 08:08:08;;;;;;;8.13;4.93;;;27.30;99.90;;;;;;4964441;28;20464;-56
2023/06/18 08:10:34;;;;;;;6.13;3.97;;;27.20;99.90;;;;;;4942664;29;20038;-55
2023/06/18 08:13:00;;;;;;;6.50;3.88;;;27.20;99.90;;;;;;4947683;28;20109;-55
2023/06/18 08:15:27;;;;;;;6.15;3.97;;;27.10;99.90;;;;;;4936855;29;20038;-55
2023/06/18 08:17:53;;;;;;;4.38;3.97;;;27.10;99.90;;;;;;4938239;29;20499;-55
2023/06/18 08:20:19;;;;;;;8.80;4.35;;;27.10;99.90;;;;;;4937927;29;20068;-54
2023/06/18 08:22:45;;;;;;;7.40;3.50;;;27.10;99.90;;;;;;4937963;29;20023;-55
2023/06/18 08:25:10;;;;;;;8.05;3.92;;;27.10;99.90;;;;;;4950856;29;20036;-55
2023/06/18 08:27:36;;;;;;;5.80;4.18;;;27.10;99.90;;;;;;4957066;28;20023;-55
2023/06/18 08:30:04;;;;;;;8.27;4.70;;;27.10;99.90;;;;;;4957030;28;20031;-55
2023/06/18 08:32:30;;;;;;;8.27;4.70;;;27.10;99.90;;;;;;4938619;28;20483;-55
2023/06/18 08:34:55;;;;;;;6.78;4.40;;;27.20;99.90;;;;;;4949519;29;20042;-55
2023/06/18 08:37:21;;;;;;;9.85;5.57;;;27.20;99.90;;;;;;4952937;28;20027;-55
2023/06/18 08:39:47;;;;;;;6.63;5.47;;;27.20;99.90;;;;;;4937671;29;20102;-55
2023/06/18 08:42:17;;;;;;;6.45;4.32;;;27.20;99.90;;;;;;4937583;29;20024;-55
2023/06/18 08:44:46;;;;;;;7.32;5.90;;;27.10;99.90;;;;;;4937507;29;20023;-55
2023/06/18 08:47:12;;;;;;;21.13;14.13;;;27.10;99.90;;;;;;4937376;29;20048;-55
2023/06/18 08:49:41;;;;;;;13.02;7.18;;;27.10;99.90;;;;;;4937690;29;20102;-55
2023/06/18 08:52:09;;;;;;;8.18;4.57;;;27.10;99.90;;;;;;4937294;29;20107;-55
2023/06/18 08:54:35;;;;;;;;;;;27.10;99.90;;;;;;4937730;29;20047;-55
2023/06/18 08:57:21;;;;;;;23.27;15.88;;;27.10;99.90;;;;;;4938105;29;19914;-55
2023/06/18 08:59:48;;;;;;;6.78;4.88;;;27.10;99.90;;;;;;4956246;28;20054;-55
2023/06/18 09:02:21;;;;;;;8.93;4.43;;;27.10;99.90;;;;;;4939077;28;20135;-55
2023/06/18 09:04:47;;;;;;;6.45;4.70;;;27.10;99.90;;;;;;4936228;29;20024;-55
2023/06/18 09:07:13;;;;;;;6.32;4.72;;;27.10;99.90;;;;;;4936662;29;20023;-55
2023/06/18 09:09:38;;;;;;;6.95;5.85;;;27.10;99.90;;;;;;4947134;29;20137;-55
2023/06/18 09:12:05;;;;;;;10.23;7.22;;;27.00;99.90;;;;;;4943190;28;20027;-55
2023/06/18 09:14:31;;;;;;;8.83;6.27;;;27.00;99.90;;;;;;4945969;29;20050;-55
2023/06/18 09:16:57;;;;;;;8.73;4.90;;;27.00;99.90;;;;;;4937565;29;20024;-55
2023/06/18 09:19:24;;;;;;;10.70;5.65;;;27.00;99.90;;;;;;4948473;29;20031;-56
2023/06/18 09:21:50;;;;;;;8.77;4.93;;;27.00;99.90;;;;;;4937676;29;20102;-55
2023/06/18 09:24:19;;;;;;;7.35;4.95;;;27.00;99.90;;;;;;4949869;28;20356;-57
2023/06/18 09:26:45;;;;;;;7.57;5.75;;;26.90;99.90;;;;;;4949278;29;20495;-57
2023/06/18 09:29:12;;;;;;;7.68;4.93;;;26.90;99.90;;;;;;4949398;28;20024;-57
2023/06/18 09:31:44;;;;;;;7.33;4.80;;;26.90;99.90;;;;;;4947939;29;20391;-57
2023/06/18 09:34:20;;;;;;;15.02;7.97;;;26.80;99.90;;;;;;4935430;29;20091;-57
2023/06/18 09:36:47;;;;;;;10.50;8.80;;;26.80;99.90;;;;;;4935309;29;20040;-57
2023/06/18 09:39:17;;;;;;;18.75;13.32;;;26.80;99.90;;;;;;4948912;29;20079;-57
2023/06/18 09:41:44;;;;;;;8.05;5.93;;;26.80;99.90;;;;;;4936346;29;20353;-58
2023/06/18 09:44:11;;;;;;;9.32;5.03;;;26.80;99.90;;;;;;4970059;28;20067;-56
2023/06/18 09:46:37;;;;;;;13.10;9.63;;;26.80;99.90;;;;;;4943857;28;20024;-54
2023/06/18 09:49:03;;;;;;;11.07;6.57;;;26.80;99.90;;;;;;4936292;29;20114;-56
2023/06/18 09:51:30;;;;;;;10.25;6.40;;;26.90;99.90;;;;;;4946215;29;20042;-56
2023/06/18 09:53:58;;;;;;;7.00;5.97;;;26.80;99.90;;;;;;4941869;28;20027;-57
2023/06/18 09:56:24;;;;;;;11.43;5.32;;;26.80;99.90;;;;;;4955084;28;20373;-56
2023/06/18 09:58:51;;;;;;;9.32;5.70;;;26.80;99.90;;;;;;4939587;28;20038;-56
2023/06/18 10:01:18;;;;;;;11.50;7.18;;;26.80;99.90;;;;;;4935549;29;20083;-56
2023/06/18 10:03:44;;;;;;;;;;;26.80;99.90;;;;;;4936207;29;20024;-56
2023/06/18 10:06:19;;;;;;;12.13;9.48;;;26.80;99.90;;;;;;4935872;29;19907;-56
2023/06/18 10:08:50;;;;;;;18.40;11.93;;;26.80;99.90;;;;;;4935914;29;20099;-56
2023/06/18 10:11:18;;;;;;;15.30;10.05;;;26.70;99.90;;;;;;4941534;29;20015;-56
2023/06/18 10:13:55;;;;;;;;;;;26.70;99.90;;;;;;4944672;28;20487;-55
2023/06/18 10:16:22;;;;;;;14.35;7.07;;;26.60;99.90;;;;;;4948400;28;20248;-56
2023/06/18 10:19:05;;;;;;;13.70;7.53;;;26.70;99.90;;;;;;4954467;28;20037;-57
2023/06/18 10:21:34;;;;;;;9.82;6.85;;;26.70;99.90;;;;;;4952116;28;20027;-56
2023/06/18 10:24:17;;;;;;;11.55;6.53;;;26.70;99.90;;;;;;4949008;28;20082;-55
2023/06/18 10:26:43;;;;;;;9.38;6.60;;;26.80;99.90;;;;;;4947473;28;20118;-55
2023/06/18 10:29:11;;;;;;;10.85;7.63;;;26.80;99.90;;;;;;4958984;28;20030;-55
2023/06/18 10:31:37;;;;;;;13.18;7.80;;;26.80;99.90;;;;;;4954068;28;20114;-56
2023/06/18 10:34:05;;;;;;;11.43;7.07;;;26.90;99.90;;;;;;4962581;28;20039;-56
2023/06/18 10:36:31;;;;;;;11.20;7.57;;;26.90;99.90;;;;;;4960227;28;20019;-56
2023/06/18 10:38:58;;;;;;;12.75;6.88;;;27.00;99.90;;;;;;4962074;28;20501;-56
2023/06/18 10:41:24;;;;;;;15.73;7.35;;;27.00;99.90;;;;;;4952503;28;20472;-56
2023/06/18 10:43:54;;;;;;;11.50;6.45;;;27.00;99.90;;;;;;4949777;28;20067;-56
2023/06/18 10:46:24;;;;;;;12.00;5.93;;;27.00;99.90;;;;;;4950850;28;20462;-56
2023/06/18 10:49:16;;;;;;;11.88;6.22;;;27.10;99.90;;;;;;4951847;28;20391;-56
2023/06/18 10:52:04;;;;;;;10.02;5.50;;;27.10;99.90;;;;;;4949345;28;20118;-56
2023/06/18 10:54:31;;;;;;;8.65;5.85;;;27.10;99.90;;;;;;4950838;28;20035;-56
2023/06/18 10:57:01;;;;;;;15.23;6.90;;;27.10;99.90;;;;;;4949645;28;20115;-56
2023/06/18 10:59:42;;;;;;;11.38;6.20;;;27.10;99.90;;;;;;4958984;28;20031;-55
2023/06/18 11:02:08;;;;;;;9.82;5.72;;;27.10;99.90;;;;;;4950206;28;20127;-55
2023/06/18 11:04:34;;;;;;;14.10;7.70;;;27.10;99.90;;;;;;4948630;28;20102;-55
2023/06/18 11:07:23;;;;;;;15.30;7.60;;;27.10;99.90;;;;;;4952768;28;20031;-55
2023/06/18 11:09:58;;;;;;;9.60;6.82;;;27.10;99.90;;;;;;4960708;28;20027;-56
2023/06/18 11:12:33;;;;;;;11.75;6.60;;;27.10;99.90;;;;;;4952158;28;20075;-54
2023/06/18 11:15:20;;;;;;;11.07;6.80;;;27.10;99.90;;;;;;4953207;28;20024;-54
2023/06/18 11:17:55;;;;;;;11.52;7.22;;;27.10;99.90;;;;;;4950627;28;20100;-54
2023/06/18 11:20:23;;;;;;;16.85;6.80;;;27.10;99.90;;;;;;4946964;28;20027;-56
2023/06/18 11:22:55;;;;;;;15.40;7.93;;;27.10;99.90;;;;;;4951513;28;20437;-56
2023/06/18 11:25:21;;;;;;;14.60;8.23;;;27.20;99.90;;;;;;4963113;28;20077;-56
2023/06/18 11:27:48;;;;;;;17.13;7.97;;;27.10;99.90;;;;;;4947741;28;20030;-56
2023/06/18 11:30:16;;;;;;;20.52;7.28;;;27.20;99.90;;;;;;4949753;28;20031;-56
2023/06/18 11:32:42;;;;;;;17.10;6.40;;;27.20;99.90;;;;;;4956382;28;20372;-56
2023/06/18 11:35:10;;;;;;;12.45;6.20;;;27.20;99.90;;;;;;4957425;28;20043;-54
2023/06/18 11:37:38;;;;;;;13.52;7.05;;;27.20;99.90;;;;;;4951529;28;20026;-56
2023/06/18 11:40:06;;;;;;;12.98;6.95;;;27.10;99.90;;;;;;4948977;28;20059;-56
2023/06/18 11:42:33;;;;;;;11.48;6.78;;;27.10;99.90;;;;;;4949971;28;20019;-55
2023/06/18 11:45:02;;;;;;;18.48;7.60;;;27.10;99.90;;;;;;4952366;28;20102;-56
2023/06/18 11:47:35;;;;;;;13.15;7.00;;;27.10;99.90;;;;;;4949947;28;20043;-57
2023/06/18 11:50:01;;;;;;;13.20;6.97;;;27.10;99.90;;;;;;4952070;28;20027;-56
2023/06/18 11:52:28;;;;;;;14.90;6.70;;;27.10;99.90;;;;;;4956401;28;20098;-57
2023/06/18 11:55:02;;;;;;;11.88;7.18;;;27.10;99.90;;;;;;4950756;28;20039;-58
2023/06/18 11:57:28;;;;;;;12.55;6.32;;;27.10;99.90;;;;;;4952537;28;20039;-58
2023/06/18 11:59:54;;;;;;;10.00;6.65;;;27.10;99.90;;;;;;4951146;28;20023;-56
2023/06/18 12:02:24;;;;;;;9.60;5.95;;;27.10;99.90;;;;;;4952232;28;20126;-58
2023/06/18 12:04:51;;;;;;;9.15;6.35;;;27.10;99.90;;;;;;4954278;28;20031;-57
2023/06/18 12:07:21;;;;;;;9.63;6.38;;;27.10;99.90;;;;;;4951655;28;20035;-57
2023/06/18 12:09:49;;;;;;;21.48;7.22;;;27.10;99.90;;;;;;4951420;28;20118;-56
2023/06/18 12:12:50;;;;;;;23.08;7.05;;;27.10;99.90;;;;;;4962771;28;20078;-56
2023/06/18 12:15:22;;;;;;;19.85;6.93;;;27.00;99.90;;;;;;4950453;28;20039;-57
2023/06/18 12:17:57;;;;;;;16.75;8.00;;;27.10;99.90;;;;;;4948523;28;20030;-57
2023/06/18 12:20:25;;;;;;;13.60;6.55;;;27.00;99.90;;;;;;4962255;28;20023;-56
2023/06/18 12:22:52;;;;;;;13.23;6.45;;;27.00;99.90;;;;;;4949266;28;20023;-56
2023/06/18 12:25:21;;;;;;;11.38;6.88;;;27.00;99.90;;;;;;4950785;28;20134;-56
2023/06/18 12:27:49;;;;;;;8.88;6.65;;;27.00;99.90;;;;;;4950335;28;20022;-59
2023/06/18 12:30:15;;;;;;;9.32;6.45;;;27.00;99.90;;;;;;4958114;28;20031;-56
2023/06/18 12:32:41;;;;;;;11.35;7.25;;;27.00;99.90;;;;;;4950950;28;20133;-56
2023/06/18 12:35:19;;;;;;;15.00;7.80;;;27.00;99.90;;;;;;4952804;28;20027;-55
2023/06/18 12:37:46;;;;;;;13.48;7.57;;;27.10;99.90;;;;;;4950024;28;20510;-56
2023/06/18 12:40:24;;;;;;;7.28;5.40;;;27.10;99.90;;;;;;4954051;28;20487;-58
2023/06/18 12:42:51;;;;;;;8.10;5.65;;;27.10;99.90;;;;;;4956079;28;20024;-56
2023/06/18 12:45:26;;;;;;;10.80;5.80;;;27.10;99.90;;;;;;4955321;28;20106;-55
2023/06/18 12:47:52;;;;;;;9.48;6.32;;;27.20;99.90;;;;;;4953063;28;20085;-56
2023/06/18 12:50:27;;;;;;;9.27;6.65;;;27.20;99.90;;;;;;4966527;28;20019;-57
2023/06/18 12:52:53;;;;;;;8.70;7.05;;;27.30;99.90;;;;;;4956429;28;20031;-56